createdAt,value
2017-12-20T00:01:41.836Z,6.95
2017-12-20T00:04:09.281Z,6.96
2017-12-20T00:06:36.693Z,6.92
2017-12-20T00:09:04.126Z,6.92
2017-12-20T00:11:31.552Z,6.91
2017-12-20T00:13:58.984Z,6.95
2017-12-20T00:16:26.402Z,6.97
2017-12-20T00:18:53.842Z,6.97
2017-12-20T00:21:21.246Z,6.99
2017-12-20T00:23:48.650Z,7.05
2017-12-20T00:26:16.064Z,7.06
2017-12-20T00:28:43.478Z,7.05
2017-12-20T00:31:10.893Z,7.02
2017-12-20T00:33:38.331Z,7.02
2017-12-20T00:36:05.736Z,6.99
2017-12-20T00:38:33.139Z,6.96
2017-12-20T00:41:00.650Z,6.92
2017-12-20T00:43:28.073Z,6.95
2017-12-20T00:45:55.499Z,6.96
2017-12-20T00:48:22.936Z,6.96
2017-12-20T00:50:50.351Z,6.96
2017-12-20T00:53:17.762Z,6.97
2017-12-20T00:55:45.281Z,7.02
2017-12-20T00:58:12.682Z,7.02
2017-12-20T01:00:40.087Z,7.01
2017-12-20T01:03:07.600Z,7.00
2017-12-20T01:05:35.014Z,7.02
2017-12-20T01:08:02.422Z,7.04
2017-12-20T01:10:29.864Z,7.04
2017-12-20T01:12:57.294Z,7.04
2017-12-20T01:15:24.703Z,7.06
2017-12-20T01:17:52.138Z,6.99
2017-12-20T01:20:19.554Z,7.02
2017-12-20T01:22:46.986Z,6.99
2017-12-20T01:25:14.509Z,6.99
2017-12-20T01:27:41.931Z,7.03
2017-12-20T01:30:09.342Z,7.06
2017-12-20T01:32:36.771Z,7.08
2017-12-20T01:35:04.208Z,7.12
2017-12-20T01:37:31.605Z,7.14
2017-12-20T01:39:59.041Z,7.17
2017-12-20T01:42:43.783Z,7.14
2017-12-20T01:45:11.213Z,7.17
2017-12-20T01:47:38.617Z,7.10
2017-12-20T01:50:06.041Z,7.11
2017-12-20T01:52:33.450Z,7.13
2017-12-20T01:55:00.861Z,7.15
2017-12-20T01:57:28.274Z,7.09
2017-12-20T01:59:55.681Z,7.06
2017-12-20T02:02:23.091Z,7.07
2017-12-20T02:04:50.506Z,7.02
2017-12-20T02:07:17.958Z,7.00
2017-12-20T02:09:45.365Z,6.99
2017-12-20T02:12:12.776Z,7.06
2017-12-20T02:14:40.194Z,6.96
2017-12-20T02:17:07.597Z,6.96
2017-12-20T02:19:35.010Z,6.97
2017-12-20T02:22:02.445Z,7.03
2017-12-20T02:24:29.860Z,7.05
2017-12-20T02:26:57.278Z,7.05
2017-12-20T02:29:24.689Z,7.09
2017-12-20T02:31:52.093Z,7.13
2017-12-20T02:34:19.509Z,7.18
2017-12-20T02:36:46.948Z,7.21
2017-12-20T02:39:14.361Z,7.20
2017-12-20T02:41:41.772Z,7.18
2017-12-20T02:44:09.201Z,7.19
2017-12-20T02:46:36.611Z,7.20
2017-12-20T02:49:04.018Z,7.18
2017-12-20T02:51:31.433Z,7.21
2017-12-20T02:53:58.868Z,7.18
2017-12-20T02:56:26.320Z,7.16
2017-12-20T02:58:53.727Z,7.19
2017-12-20T03:01:21.157Z,7.24
2017-12-20T03:03:48.606Z,7.10
2017-12-20T03:06:16.025Z,6.99
2017-12-20T03:08:43.449Z,6.99
2017-12-20T03:11:10.861Z,6.97
2017-12-20T03:13:38.268Z,7.11
2017-12-20T03:16:05.702Z,7.13
2017-12-20T03:18:33.109Z,7.18
2017-12-20T03:21:00.561Z,7.27
2017-12-20T03:23:27.970Z,7.30
2017-12-20T03:25:55.381Z,7.24
2017-12-20T03:28:22.809Z,7.21
2017-12-20T03:30:50.230Z,7.22
2017-12-20T03:33:17.759Z,7.21
2017-12-20T03:35:45.177Z,7.24
2017-12-20T03:38:12.598Z,7.26
2017-12-20T03:40:40.005Z,7.28
2017-12-20T03:43:07.625Z,7.31
2017-12-20T03:45:35.072Z,7.34
2017-12-20T03:48:02.486Z,7.35
2017-12-20T03:50:29.938Z,7.34
2017-12-20T03:52:57.350Z,7.30
2017-12-20T03:55:24.816Z,7.31
2017-12-20T03:57:52.245Z,7.31
2017-12-20T04:00:19.661Z,7.34
2017-12-20T04:02:47.065Z,7.31
2017-12-20T04:05:14.489Z,7.27
2017-12-20T04:07:41.898Z,7.30
2017-12-20T04:10:09.317Z,7.31
2017-12-20T04:12:36.715Z,7.31
2017-12-20T04:15:04.222Z,7.34
2017-12-20T04:17:31.625Z,7.24
2017-12-20T04:19:59.040Z,7.24
2017-12-20T04:22:26.456Z,7.29
2017-12-20T04:24:53.860Z,7.32
2017-12-20T04:27:21.281Z,7.31
2017-12-20T04:29:48.697Z,7.30
2017-12-20T04:32:16.126Z,7.28
2017-12-20T04:34:43.549Z,7.35
2017-12-20T04:37:10.962Z,7.44
2017-12-20T04:39:38.430Z,7.39
2017-12-20T04:42:05.845Z,7.40
2017-12-20T04:44:33.240Z,7.37
2017-12-20T04:47:00.655Z,7.43
2017-12-20T04:49:28.060Z,7.44
2017-12-20T04:51:56.026Z,7.38
2017-12-20T04:54:23.434Z,7.37
2017-12-20T04:56:50.849Z,7.41
2017-12-20T04:59:18.251Z,7.32
2017-12-20T05:01:45.668Z,7.27
2017-12-20T05:04:13.194Z,7.30
2017-12-20T05:06:40.602Z,7.35
2017-12-20T05:09:08.005Z,7.36
2017-12-20T05:11:35.437Z,7.42
2017-12-20T05:14:02.838Z,7.42
2017-12-20T05:16:30.269Z,7.38
2017-12-20T05:18:57.683Z,7.40
2017-12-20T05:21:28.275Z,7.37
2017-12-20T05:23:55.681Z,7.34
2017-12-20T05:26:23.142Z,7.37
2017-12-20T05:28:50.521Z,7.39
2017-12-20T05:31:17.929Z,7.41
2017-12-20T05:33:45.345Z,7.48
2017-12-20T05:36:12.791Z,7.42
2017-12-20T05:38:40.202Z,7.44
2017-12-20T05:41:07.641Z,7.44
2017-12-20T05:43:35.053Z,7.45
2017-12-20T05:46:02.458Z,7.48
2017-12-20T05:48:29.869Z,7.40
2017-12-20T05:50:57.276Z,7.36
2017-12-20T05:53:24.693Z,7.24
2017-12-20T05:55:52.101Z,7.28
2017-12-20T05:58:19.509Z,7.28
2017-12-20T06:00:46.926Z,7.25
2017-12-20T06:03:14.337Z,7.27
2017-12-20T06:05:41.749Z,7.30
2017-12-20T06:08:09.153Z,7.21
2017-12-20T06:10:36.566Z,7.24
2017-12-20T06:13:03.973Z,7.34
2017-12-20T06:15:31.484Z,7.39
2017-12-20T06:17:58.896Z,7.36
2017-12-20T06:20:26.305Z,7.41
2017-12-20T06:22:53.721Z,7.38
2017-12-20T06:25:21.126Z,7.33
2017-12-20T06:27:48.555Z,7.39
2017-12-20T06:30:15.958Z,7.38
2017-12-20T06:32:43.383Z,7.39
2017-12-20T06:35:10.788Z,7.43
2017-12-20T06:37:38.197Z,7.45
2017-12-20T06:40:05.604Z,7.48
2017-12-20T06:42:33.024Z,7.45
2017-12-20T06:45:00.434Z,7.44
2017-12-20T06:47:27.845Z,7.42
2017-12-20T06:49:55.258Z,7.41
2017-12-20T06:52:22.683Z,7.46
2017-12-20T06:54:50.110Z,7.50
2017-12-20T06:57:17.534Z,7.49
2017-12-20T06:59:44.934Z,7.40
2017-12-20T07:02:12.350Z,7.43
2017-12-20T07:04:39.754Z,7.43
2017-12-20T07:07:07.168Z,7.43
2017-12-20T07:09:34.578Z,7.47
2017-12-20T07:12:01.985Z,7.46
2017-12-20T07:14:29.397Z,7.46
2017-12-20T07:16:56.805Z,7.41
2017-12-20T07:19:24.267Z,7.38
2017-12-20T07:21:51.681Z,7.40
2017-12-20T07:24:19.124Z,7.43
2017-12-20T07:26:46.521Z,7.45
2017-12-20T07:29:13.926Z,7.44
2017-12-20T07:31:41.350Z,7.45
2017-12-20T07:34:08.758Z,7.50
2017-12-20T07:36:36.175Z,7.47
2017-12-20T07:39:03.595Z,7.52
2017-12-20T07:41:31.014Z,7.48
2017-12-20T07:43:58.529Z,7.57
2017-12-20T07:46:25.941Z,7.49
2017-12-20T07:48:53.349Z,7.45
2017-12-20T07:51:20.760Z,7.51
2017-12-20T07:53:48.177Z,7.51
2017-12-20T07:56:15.626Z,7.54
2017-12-20T07:58:43.037Z,7.49
2017-12-20T08:01:10.446Z,7.54
2017-12-20T08:03:37.861Z,7.60
2017-12-20T08:06:05.270Z,7.62
2017-12-20T08:08:32.702Z,7.64
2017-12-20T08:11:00.116Z,7.67
2017-12-20T08:13:27.517Z,7.68
2017-12-20T08:15:54.944Z,7.70
2017-12-20T08:18:22.341Z,7.73
2017-12-20T08:20:49.786Z,7.71
2017-12-20T08:23:17.246Z,7.70
2017-12-20T08:25:44.636Z,7.73
2017-12-20T08:28:12.052Z,7.73
2017-12-20T08:30:39.461Z,7.73
2017-12-20T08:33:06.897Z,7.71
2017-12-20T08:35:34.313Z,7.70
2017-12-20T08:38:01.719Z,7.68
2017-12-20T08:40:29.142Z,7.68
2017-12-20T08:42:56.549Z,7.76
2017-12-20T08:45:23.989Z,7.79
2017-12-20T08:47:51.390Z,7.74
2017-12-20T08:50:18.800Z,7.74
2017-12-20T08:52:46.212Z,7.80
2017-12-20T08:55:13.746Z,7.83
2017-12-20T08:57:41.150Z,7.85
2017-12-20T09:00:08.555Z,7.80
2017-12-20T09:02:35.966Z,7.79
2017-12-20T09:05:03.374Z,7.90
2017-12-20T09:07:30.810Z,7.85
2017-12-20T09:09:58.222Z,7.80
2017-12-20T09:12:25.628Z,7.73
2017-12-20T09:14:53.050Z,7.71
2017-12-20T09:17:20.462Z,7.80
2017-12-20T09:19:47.881Z,7.84
2017-12-20T09:22:15.282Z,7.91
2017-12-20T09:24:42.702Z,7.87
2017-12-20T09:27:15.913Z,7.96
2017-12-20T09:29:43.318Z,8.01
2017-12-20T09:32:10.725Z,7.89
2017-12-20T09:34:38.153Z,7.89
2017-12-20T09:37:05.561Z,7.89
2017-12-20T09:39:32.972Z,7.96
2017-12-20T09:42:00.381Z,7.99
2017-12-20T09:44:27.781Z,8.04
2017-12-20T09:46:55.189Z,8.08
2017-12-20T09:49:22.598Z,8.12
2017-12-20T09:51:50.009Z,8.11
2017-12-20T09:54:17.421Z,8.08
2017-12-20T09:56:44.841Z,8.04
2017-12-20T09:59:12.251Z,8.08
2017-12-20T10:01:39.658Z,8.09
2017-12-20T10:04:07.919Z,8.13
2017-12-20T10:06:35.332Z,8.14
2017-12-20T10:09:02.742Z,8.20
2017-12-20T10:11:30.154Z,8.23
2017-12-20T10:13:57.570Z,8.23
2017-12-20T10:16:24.985Z,8.22
2017-12-20T10:18:52.390Z,8.20
2017-12-20T10:21:19.797Z,8.17
2017-12-20T10:23:47.218Z,8.30
2017-12-20T10:26:14.626Z,8.23
2017-12-20T10:28:42.070Z,8.19
2017-12-20T10:31:09.481Z,8.20
2017-12-20T10:33:36.901Z,8.23
2017-12-20T10:36:04.309Z,8.29
2017-12-20T10:38:31.718Z,8.39
2017-12-20T10:40:59.161Z,8.38
2017-12-20T10:43:26.813Z,8.40
2017-12-20T10:45:54.227Z,8.40
2017-12-20T10:48:21.642Z,8.40
2017-12-20T10:50:49.061Z,8.36
2017-12-20T10:53:16.480Z,8.41
2017-12-20T10:55:43.885Z,8.41
2017-12-20T10:58:11.297Z,8.41
2017-12-20T11:00:38.730Z,8.45
2017-12-20T11:03:06.143Z,8.42
2017-12-20T11:05:33.562Z,8.45
2017-12-20T11:08:00.969Z,8.37
2017-12-20T11:10:28.386Z,8.36
2017-12-20T11:12:55.802Z,8.38
2017-12-20T11:15:23.209Z,8.40
2017-12-20T11:17:50.629Z,8.34
2017-12-20T11:20:18.045Z,8.25
2017-12-20T11:22:45.461Z,8.25
2017-12-20T11:25:12.889Z,8.35
2017-12-20T11:27:40.290Z,8.41
2017-12-20T11:30:07.739Z,8.46
2017-12-20T11:32:35.149Z,8.43
2017-12-20T11:35:02.558Z,8.39
2017-12-20T11:37:29.969Z,8.40
2017-12-20T11:39:57.437Z,8.43
2017-12-20T11:42:24.866Z,8.42
2017-12-20T11:44:52.281Z,8.38
2017-12-20T11:47:19.693Z,8.38
2017-12-20T11:49:47.118Z,8.38
2017-12-20T11:52:14.528Z,8.41
2017-12-20T11:54:41.979Z,8.42
2017-12-20T11:57:09.405Z,8.43
2017-12-20T11:59:36.837Z,8.45
2017-12-20T12:02:04.310Z,8.53
2017-12-20T12:04:31.722Z,8.53
2017-12-20T12:06:59.169Z,8.52
2017-12-20T12:09:26.665Z,8.55
2017-12-20T12:11:54.117Z,8.60
2017-12-20T12:14:21.552Z,8.60
2017-12-20T12:16:48.949Z,8.59
2017-12-20T12:19:16.392Z,8.69
2017-12-20T12:21:43.866Z,8.74
2017-12-20T12:24:11.268Z,8.76
2017-12-20T12:26:38.719Z,8.75
2017-12-20T12:29:06.181Z,8.72
2017-12-20T12:31:33.605Z,8.72
2017-12-20T12:34:01.022Z,8.68
2017-12-20T12:36:28.421Z,8.66
2017-12-20T12:38:55.861Z,8.71
2017-12-20T12:41:23.269Z,8.72
2017-12-20T12:43:50.785Z,8.80
2017-12-20T12:46:18.196Z,8.76
2017-12-20T12:48:45.602Z,8.59
2017-12-20T12:51:13.012Z,8.56
2017-12-20T12:53:40.434Z,8.55
2017-12-20T12:56:07.948Z,8.61
2017-12-20T12:58:35.354Z,8.65
2017-12-20T13:01:02.757Z,8.67
2017-12-20T13:03:30.218Z,8.64
2017-12-20T13:05:57.634Z,8.71
2017-12-20T13:08:25.145Z,8.76
2017-12-20T13:10:52.557Z,8.77
2017-12-20T13:13:19.971Z,8.72
2017-12-20T13:15:47.386Z,8.77
2017-12-20T13:18:14.801Z,8.77
2017-12-20T13:20:42.238Z,8.65
2017-12-20T13:23:09.645Z,8.63
2017-12-20T13:25:37.058Z,8.64
2017-12-20T13:28:04.470Z,8.69
2017-12-20T13:30:31.882Z,8.67
2017-12-20T13:32:59.314Z,8.65
2017-12-20T13:35:26.725Z,8.67
2017-12-20T13:37:54.132Z,8.62
2017-12-20T13:40:21.545Z,8.68
2017-12-20T13:42:48.962Z,8.76
2017-12-20T13:45:16.398Z,8.74
2017-12-20T13:47:43.802Z,8.75
2017-12-20T13:50:11.214Z,8.77
2017-12-20T13:52:38.633Z,8.78
2017-12-20T13:55:06.038Z,8.76
2017-12-20T13:57:33.470Z,8.77
2017-12-20T14:00:00.877Z,8.74
2017-12-20T14:02:28.286Z,8.77
2017-12-20T14:04:55.696Z,8.82
2017-12-20T14:07:23.146Z,8.82
2017-12-20T14:09:50.516Z,8.86
2017-12-20T14:12:17.929Z,8.84
2017-12-20T14:14:45.349Z,8.80
2017-12-20T14:17:12.758Z,8.89
2017-12-20T14:19:40.166Z,8.89
2017-12-20T14:22:07.578Z,8.89
2017-12-20T14:24:35.009Z,8.88
2017-12-20T14:27:02.414Z,8.92
2017-12-20T14:29:29.821Z,8.88
2017-12-20T14:31:57.235Z,8.87
2017-12-20T14:34:24.658Z,8.89
2017-12-20T14:36:52.106Z,8.89
2017-12-20T14:39:19.525Z,8.88
2017-12-20T14:41:46.937Z,8.85
2017-12-20T14:44:14.367Z,8.87
2017-12-20T14:46:42.109Z,8.89
2017-12-20T14:49:09.526Z,8.93
2017-12-20T14:51:37.046Z,8.93
2017-12-20T14:54:04.477Z,8.97
2017-12-20T14:56:31.892Z,8.97
2017-12-20T14:58:59.310Z,8.97
2017-12-20T15:01:26.713Z,8.98
2017-12-20T15:03:54.157Z,9.01
2017-12-20T15:06:21.614Z,9.01
2017-12-20T15:08:49.036Z,9.03
2017-12-20T15:11:16.450Z,9.02
2017-12-20T15:13:43.880Z,9.02
2017-12-20T15:16:11.301Z,8.98
2017-12-20T15:18:38.733Z,8.99
2017-12-20T15:21:06.137Z,8.96
2017-12-20T15:23:33.560Z,8.96
2017-12-20T15:26:00.969Z,8.99
2017-12-20T15:28:28.422Z,8.96
2017-12-20T15:30:55.834Z,8.91
2017-12-20T15:33:23.280Z,8.83
2017-12-20T15:35:50.726Z,8.82
2017-12-20T15:38:18.129Z,8.85
2017-12-20T15:40:45.653Z,8.86
2017-12-20T15:43:13.067Z,8.90
2017-12-20T15:45:41.473Z,8.91
2017-12-20T15:48:08.881Z,8.93
2017-12-20T15:50:36.489Z,8.98
2017-12-20T15:53:11.822Z,8.99
2017-12-20T15:55:39.290Z,9.00
2017-12-20T15:58:06.689Z,9.00
2017-12-20T16:00:34.116Z,8.96
2017-12-20T16:03:01.563Z,8.94
2017-12-20T16:05:28.988Z,8.98
2017-12-20T16:07:56.417Z,8.99
2017-12-20T16:10:23.853Z,8.95
2017-12-20T16:12:51.377Z,8.97
2017-12-20T16:15:18.826Z,8.97
2017-12-20T16:17:46.266Z,9.01
2017-12-20T16:20:13.704Z,8.94
2017-12-20T16:22:41.111Z,8.93
2017-12-20T16:25:08.523Z,8.98
2017-12-20T16:27:35.930Z,8.96
2017-12-20T16:30:03.390Z,8.96
2017-12-20T16:32:30.853Z,8.97
2017-12-20T16:34:58.281Z,8.91
2017-12-20T16:37:26.661Z,8.87
2017-12-20T16:39:54.058Z,8.95
2017-12-20T16:42:21.493Z,8.87
2017-12-20T16:44:48.915Z,8.92
2017-12-20T16:47:16.322Z,8.88
2017-12-20T16:49:43.737Z,8.89
2017-12-20T16:52:11.149Z,8.89
2017-12-20T16:54:38.573Z,8.80
2017-12-20T16:57:05.994Z,8.81
2017-12-20T16:59:33.421Z,8.83
2017-12-20T17:02:00.888Z,8.88
2017-12-20T17:04:28.302Z,8.90
2017-12-20T17:06:55.726Z,8.89
2017-12-20T17:09:23.161Z,8.89
2017-12-20T17:11:50.578Z,8.92
2017-12-20T17:14:18.027Z,8.89
2017-12-20T17:16:45.497Z,8.91
2017-12-20T17:19:12.929Z,8.89
2017-12-20T17:21:40.329Z,8.87
2017-12-20T17:24:07.758Z,8.91
2017-12-20T17:26:35.184Z,8.87
2017-12-20T17:29:02.601Z,8.83
2017-12-20T17:31:30.049Z,8.87
2017-12-20T17:33:57.470Z,8.88
2017-12-20T17:36:24.948Z,8.94
2017-12-20T17:38:52.388Z,8.96
2017-12-20T17:41:19.813Z,8.96
2017-12-20T17:43:47.226Z,8.99
2017-12-20T17:46:14.664Z,8.98
2017-12-20T17:48:42.092Z,8.97
2017-12-20T17:51:09.507Z,8.96
2017-12-20T17:53:36.917Z,8.97
2017-12-20T17:56:04.373Z,9.00
2017-12-20T17:58:31.798Z,9.03
2017-12-20T18:00:59.323Z,9.05
2017-12-20T18:03:26.770Z,9.02
2017-12-20T18:05:54.187Z,8.98
2017-12-20T18:08:21.606Z,9.02
2017-12-20T18:10:49.030Z,8.99
2017-12-20T18:13:16.570Z,9.00
2017-12-20T18:15:43.966Z,9.03
2017-12-20T18:18:11.382Z,9.04
2017-12-20T18:20:38.890Z,9.03
2017-12-20T18:23:06.305Z,9.01
2017-12-20T18:25:33.724Z,8.94
2017-12-20T18:28:01.161Z,8.94
2017-12-20T18:30:28.598Z,8.91
2017-12-20T18:32:56.045Z,8.92
2017-12-20T18:35:23.454Z,8.90
2017-12-20T18:37:50.906Z,8.87
2017-12-20T18:40:18.350Z,8.90
2017-12-20T18:42:45.814Z,8.90
2017-12-20T18:45:13.230Z,8.92
2017-12-20T18:47:40.662Z,8.94
2017-12-20T18:50:08.113Z,8.84
2017-12-20T18:52:35.529Z,8.87
2017-12-20T18:55:02.973Z,8.92
2017-12-20T18:57:30.409Z,8.91
2017-12-20T18:59:57.824Z,8.89
2017-12-20T19:02:25.505Z,8.85
2017-12-20T19:04:52.946Z,8.92
2017-12-20T19:07:20.365Z,8.94
2017-12-20T19:09:51.966Z,8.90
2017-12-20T19:12:19.406Z,8.87
2017-12-20T19:14:48.066Z,8.87
2017-12-20T19:17:15.489Z,8.81
2017-12-20T19:19:42.889Z,8.84
2017-12-20T19:22:10.305Z,8.89
2017-12-20T19:24:38.621Z,8.94
2017-12-20T19:27:06.066Z,8.96
2017-12-20T19:29:33.493Z,9.01
2017-12-20T19:32:00.899Z,9.07
2017-12-20T19:34:28.309Z,9.06
2017-12-20T19:36:55.725Z,9.05
2017-12-20T19:39:23.239Z,9.04
2017-12-20T19:41:50.653Z,9.07
2017-12-20T19:44:18.061Z,9.01
2017-12-20T19:46:45.478Z,8.95
2017-12-20T19:49:13.558Z,9.01
2017-12-20T19:51:41.034Z,9.00
2017-12-20T19:54:08.440Z,9.03
2017-12-20T19:56:35.933Z,9.04
2017-12-20T19:59:03.342Z,9.09
2017-12-20T20:01:30.804Z,9.02
2017-12-20T20:03:58.293Z,9.00
2017-12-20T20:06:25.764Z,8.99
2017-12-20T20:08:53.191Z,9.00
2017-12-20T20:11:21.246Z,9.00
2017-12-20T20:13:48.651Z,9.04
2017-12-20T20:16:16.089Z,9.04
2017-12-20T20:18:43.562Z,9.09
2017-12-20T20:21:10.977Z,9.05
2017-12-20T20:23:39.604Z,9.07
2017-12-20T20:26:07.007Z,9.08
2017-12-20T20:28:34.469Z,9.09
2017-12-20T20:31:02.841Z,9.10
2017-12-20T20:33:30.258Z,9.08
2017-12-20T20:35:57.681Z,9.03
2017-12-20T20:38:25.109Z,9.08
2017-12-20T20:40:53.768Z,9.08
2017-12-20T20:43:21.274Z,9.04
2017-12-20T20:45:48.705Z,9.08
2017-12-20T20:48:16.126Z,9.14
2017-12-20T20:50:43.549Z,9.14
2017-12-20T20:53:10.984Z,9.05
2017-12-20T20:55:38.412Z,9.04
2017-12-20T20:58:05.845Z,9.11
2017-12-20T21:00:33.264Z,9.03
2017-12-20T21:03:00.681Z,9.08
2017-12-20T21:05:28.125Z,9.09
2017-12-20T21:07:55.538Z,9.12
2017-12-20T21:10:22.940Z,9.13
2017-12-20T21:12:50.370Z,9.17
2017-12-20T21:15:17.773Z,9.14
2017-12-20T21:17:45.204Z,9.21
2017-12-20T21:20:12.617Z,9.17
2017-12-20T21:22:40.042Z,9.19
2017-12-20T21:25:07.453Z,9.17
2017-12-20T21:27:34.896Z,9.17
2017-12-20T21:30:02.305Z,9.16
2017-12-20T21:32:29.724Z,9.18
2017-12-20T21:34:57.164Z,9.20
2017-12-20T21:37:24.581Z,9.19
2017-12-20T21:39:52.098Z,9.18
2017-12-20T21:42:19.517Z,9.19
2017-12-20T21:44:47.769Z,9.17
2017-12-20T21:47:15.219Z,9.20
2017-12-20T21:49:42.642Z,9.21
2017-12-20T21:52:10.125Z,9.22
2017-12-20T21:54:37.530Z,9.25
2017-12-20T21:57:04.941Z,9.26
2017-12-20T21:59:32.357Z,9.25
2017-12-20T22:01:59.762Z,9.23
2017-12-20T22:04:27.177Z,9.22
2017-12-20T22:06:54.597Z,9.22
2017-12-20T22:09:22.010Z,9.23
2017-12-20T22:11:49.417Z,9.26
2017-12-20T22:14:16.825Z,9.26
2017-12-20T22:16:44.247Z,9.36
2017-12-20T22:19:11.701Z,9.31
2017-12-20T22:21:39.113Z,9.27
2017-12-20T22:24:06.517Z,9.17
2017-12-20T22:26:33.939Z,9.20
2017-12-20T22:29:01.382Z,9.19
2017-12-20T22:31:28.808Z,9.15
2017-12-20T22:33:56.208Z,9.17
2017-12-20T22:36:23.629Z,9.21
2017-12-20T22:38:51.037Z,9.25
2017-12-20T22:41:18.453Z,9.30
2017-12-20T22:43:45.862Z,9.28
2017-12-20T22:46:13.273Z,9.30
2017-12-20T22:48:40.690Z,9.27
2017-12-20T22:51:08.097Z,9.24
2017-12-20T22:53:35.532Z,9.22
2017-12-20T22:56:02.941Z,9.21
2017-12-20T22:58:30.345Z,9.18
2017-12-20T23:00:57.768Z,9.22
2017-12-20T23:03:25.177Z,9.26
2017-12-20T23:05:52.697Z,9.26
2017-12-20T23:08:20.114Z,9.30
2017-12-20T23:10:47.525Z,9.28
2017-12-20T23:13:14.945Z,9.33
2017-12-20T23:15:42.361Z,9.30
2017-12-20T23:18:09.815Z,9.31
2017-12-20T23:20:37.256Z,9.30
2017-12-20T23:23:04.665Z,9.26
2017-12-20T23:25:32.097Z,9.26
2017-12-20T23:27:59.510Z,9.26
2017-12-20T23:30:27.037Z,9.30
2017-12-20T23:32:54.507Z,9.28
2017-12-20T23:35:21.946Z,9.26
2017-12-20T23:37:49.362Z,9.29
2017-12-20T23:40:16.763Z,9.27
2017-12-20T23:42:44.184Z,9.22
2017-12-20T23:45:11.597Z,9.25
2017-12-20T23:47:39.010Z,9.26
2017-12-20T23:50:06.421Z,9.28
2017-12-20T23:52:33.828Z,9.27
2017-12-20T23:55:01.254Z,9.29
2017-12-20T23:57:28.669Z,9.28
2017-12-20T23:59:56.086Z,9.26
